sensor_id;sensor_type;location;lat;lon;timestamp;pressure;altitude;pressure_sealevel;temperature;humidity
17593;BME280;8915;51.760;14.300;2022-12-31T00:00:34;100098.50;;;6.21;100.00
17593;BME280;8915;51.760;14.300;2022-12-31T00:03:02;100104.47;;;6.25;100.00
17593;BME280;8915;51.760;14.300;2022-12-31T00:05:29;100107.06;;;6.23;100.00
17593;BME280;8915;51.760;14.300;2022-12-31T00:07:55;100106.22;;;6.24;100.00
17593;BME280;8915;51.760;14.300;2022-12-31T00:10:22;100108.75;;;6.26;100.00
17593;BME280;8915;51.760;14.300;2022-12-31T00:12:48;100103.66;;;6.21;100.00
17593;BME280;8915;51.760;14.300;2022-12-31T00:15:14;100094.19;;;6.19;100.00
17593;BME280;8915;51.760;14.300;2022-12-31T00:17:42;100102.94;;;6.13;100.00
17593;BME280;8915;51.760;14.300;2022-12-31T00:20:09;100116.81;;;6.07;100.00
17593;BME280;8915;51.760;14.300;2022-12-31T00:22:36;100114.38;;;6.00;100.00
17593;BME280;8915;51.760;14.300;2022-12-31T00:25:06;100115.28;;;5.96;100.00
17593;BME280;8915;51.760;14.300;2022-12-31T00:27:32;100114.41;;;5.95;100.00
17593;BME280;8915;51.760;14.300;2022-12-31T00:29:58;100128.28;;;5.91;100.00
17593;BME280;8915;51.760;14.300;2022-12-31T00:32:25;100129.16;;;5.88;100.00
17593;BME280;8915;51.760;14.300;2022-12-31T00:34:52;100142.91;;;5.91;100.00
17593;BME280;8915;51.760;14.300;2022-12-31T00:37:19;100136.97;;;5.84;100.00
17593;BME280;8915;51.760;14.300;2022-12-31T00:39:45;100136.13;;;5.83;100.00
17593;BME280;8915;51.760;14.300;2022-12-31T00:42:11;100144.72;;;5.84;100.00
17593;BME280;8915;51.760;14.300;2022-12-31T00:44:38;100159.44;;;5.82;100.00
17593;BME280;8915;51.760;14.300;2022-12-31T00:47:04;100162.84;;;5.84;100.00
17593;BME280;8915;51.760;14.300;2022-12-31T00:49:30;100162.00;;;5.82;100.00
17593;BME280;8915;51.760;14.300;2022-12-31T00:51:58;100166.38;;;5.78;100.00
17593;BME280;8915;51.760;14.300;2022-12-31T00:54:24;100161.19;;;5.78;100.00
17593;BME280;8915;51.760;14.300;2022-12-31T00:56:51;100168.97;;;5.78;100.00
17593;BME280;8915;51.760;14.300;2022-12-31T00:59:17;100174.06;;;5.84;100.00
17593;BME280;8915;51.760;14.300;2022-12-31T01:01:43;100169.69;;;5.90;100.00
17593;BME280;8915;51.760;14.300;2022-12-31T01:04:12;100167.09;;;5.90;100.00
17593;BME280;8915;51.760;14.300;2022-12-31T01:06:42;100175.69;;;5.92;100.00
17593;BME280;8915;51.760;14.300;2022-12-31T01:09:10;100182.53;;;5.94;100.00
17593;BME280;8915;51.760;14.300;2022-12-31T01:11:37;100179.16;;;5.91;100.00
17593;BME280;8915;51.760;14.300;2022-12-31T01:14:06;100172.31;;;5.85;100.00
17593;BME280;8915;51.760;14.300;2022-12-31T01:16:36;100181.78;;;5.87;100.00
17593;BME280;8915;51.760;14.300;2022-12-31T01:19:04;100180.03;;;5.90;100.00
17593;BME280;8915;51.760;14.300;2022-12-31T01:21:32;100181.72;;;5.92;100.00
17593;BME280;8915;51.760;14.300;2022-12-31T01:23:59;100182.53;;;5.94;100.00
17593;BME280;8915;51.760;14.300;2022-12-31T01:26:28;100184.28;;;5.94;100.00
17593;BME280;8915;51.760;14.300;2022-12-31T01:28:54;100190.22;;;6.03;100.00
17593;BME280;8915;51.760;14.300;2022-12-31T01:31:22;100198.75;;;6.10;100.00
17593;BME280;8915;51.760;14.300;2022-12-31T01:33:50;100199.47;;;6.20;100.00
17593;BME280;8915;51.760;14.300;2022-12-31T01:36:20;100198.53;;;6.24;100.00
17593;BME280;8915;51.760;14.300;2022-12-31T01:38:47;100208.00;;;6.27;100.00
17593;BME280;8915;51.760;14.300;2022-12-31T01:41:15;100217.41;;;6.34;100.00
17593;BME280;8915;51.760;14.300;2022-12-31T01:43:47;100214.72;;;6.38;100.00
17593;BME280;8915;51.760;14.300;2022-12-31T01:46:19;100205.22;;;6.40;100.00
17593;BME280;8915;51.760;14.300;2022-12-31T01:48:50;100202.50;;;6.48;100.00
17593;BME280;8915;51.760;14.300;2022-12-31T01:51:18;100209.25;;;6.57;100.00
17593;BME280;8915;51.760;14.300;2022-12-31T01:53:45;100210.16;;;6.54;100.00
17593;BME280;8915;51.760;14.300;2022-12-31T01:56:12;100217.09;;;6.52;100.00
17593;BME280;8915;51.760;14.300;2022-12-31T01:58:42;100218.78;;;6.55;100.00
17593;BME280;8915;51.760;14.300;2022-12-31T02:01:11;100219.56;;;6.61;100.00
17593;BME280;8915;51.760;14.300;2022-12-31T02:03:39;100219.34;;;6.74;100.00
17593;BME280;8915;51.760;14.300;2022-12-31T02:06:09;100210.59;;;6.81;100.00
17593;BME280;8915;51.760;14.300;2022-12-31T02:08:38;100218.25;;;6.87;100.00
17593;BME280;8915;51.760;14.300;2022-12-31T02:11:20;100213.00;;;6.90;100.00
17593;BME280;8915;51.760;14.300;2022-12-31T02:13:47;100213.59;;;7.06;100.00
17593;BME280;8915;51.760;14.300;2022-12-31T02:16:20;100208.22;;;7.15;100.00
17593;BME280;8915;51.760;14.300;2022-12-31T02:18:52;100210.59;;;7.28;100.00
17593;BME280;8915;51.760;14.300;2022-12-31T02:21:39;100211.47;;;7.28;100.00
17593;BME280;8915;51.760;14.300;2022-12-31T02:24:24;100203.63;;;7.30;100.00
17593;BME280;8915;51.760;14.300;2022-12-31T02:27:00;100193.91;;;7.43;100.00
17593;BME280;8915;51.760;14.300;2022-12-31T02:30:04;100203.25;;;7.50;100.00
17593;BME280;8915;51.760;14.300;2022-12-31T02:32:37;100203.00;;;7.62;100.00
17593;BME280;8915;51.760;14.300;2022-12-31T02:35:08;100207.25;;;7.66;100.00
17593;BME280;8915;51.760;14.300;2022-12-31T02:37:38;100208.09;;;7.67;100.00
17593;BME280;8915;51.760;14.300;2022-12-31T02:40:09;100205.19;;;7.81;100.00
17593;BME280;8915;51.760;14.300;2022-12-31T02:42:36;100212.88;;;7.87;100.00
17593;BME280;8915;51.760;14.300;2022-12-31T02:45:05;100206.59;;;7.97;100.00
17593;BME280;8915;51.760;14.300;2022-12-31T02:47:42;100200.44;;;8.01;100.00
17593;BME280;8915;51.760;14.300;2022-12-31T02:50:21;100208.31;;;7.96;100.00
17593;BME280;8915;51.760;14.300;2022-12-31T02:52:56;100208.25;;;8.00;100.00
17593;BME280;8915;51.760;14.300;2022-12-31T02:55:31;100209.19;;;7.97;100.00
17593;BME280;8915;51.760;14.300;2022-12-31T02:58:07;100215.31;;;7.93;100.00
17593;BME280;8915;51.760;14.300;2022-12-31T03:00:40;100211.81;;;7.95;100.00
17593;BME280;8915;51.760;14.300;2022-12-31T03:03:28;100222.06;;;8.02;100.00
17593;BME280;8915;51.760;14.300;2022-12-31T03:05:55;100225.31;;;8.11;100.00
17593;BME280;8915;51.760;14.300;2022-12-31T03:08:25;100224.41;;;8.12;100.00
17593;BME280;8915;51.760;14.300;2022-12-31T03:10:52;100221.94;;;8.08;100.00
17593;BME280;8915;51.760;14.300;2022-12-31T03:13:21;100221.16;;;8.04;100.00
17593;BME280;8915;51.760;14.300;2022-12-31T03:15:48;100225.53;;;8.02;100.00
17593;BME280;8915;51.760;14.300;2022-12-31T03:18:16;100221.19;;;8.03;100.00
17593;BME280;8915;51.760;14.300;2022-12-31T03:20:45;100221.25;;;8.00;100.00
17593;BME280;8915;51.760;14.300;2022-12-31T03:23:33;100217.84;;;7.96;100.00
17593;BME280;8915;51.760;14.300;2022-12-31T03:26:00;100216.22;;;7.92;100.00
17593;BME280;8915;51.760;14.300;2022-12-31T03:28:28;100215.47;;;7.87;100.00
17593;BME280;8915;51.760;14.300;2022-12-31T03:30:58;100224.16;;;7.84;100.00
17593;BME280;8915;51.760;14.300;2022-12-31T03:33:25;100232.84;;;7.83;100.00
17593;BME280;8915;51.760;14.300;2022-12-31T03:35:55;100228.56;;;7.81;100.00
17593;BME280;8915;51.760;14.300;2022-12-31T03:38:21;100227.66;;;7.83;100.00
17593;BME280;8915;51.760;14.300;2022-12-31T03:40:50;100219.06;;;7.81;100.00
17593;BME280;8915;51.760;14.300;2022-12-31T03:43:17;100223.47;;;7.77;100.00
17593;BME280;8915;51.760;14.300;2022-12-31T03:45:44;100220.88;;;7.76;100.00
17593;BME280;8915;51.760;14.300;2022-12-31T03:48:14;100222.59;;;7.75;100.00
17593;BME280;8915;51.760;14.300;2022-12-31T03:50:40;100217.41;;;7.75;100.00
17593;BME280;8915;51.760;14.300;2022-12-31T03:53:06;100219.97;;;7.78;100.00
17593;BME280;8915;51.760;14.300;2022-12-31T03:55:33;100226.00;;;7.79;100.00
17593;BME280;8915;51.760;14.300;2022-12-31T03:57:59;100217.28;;;7.83;100.00
17593;BME280;8915;51.760;14.300;2022-12-31T04:00:26;100214.63;;;7.86;100.00
17593;BME280;8915;51.760;14.300;2022-12-31T04:02:52;100201.66;;;7.86;100.00
17593;BME280;8915;51.760;14.300;2022-12-31T04:05:20;100198.91;;;7.92;100.00
17593;BME280;8915;51.760;14.300;2022-12-31T04:07:47;100202.34;;;7.93;100.00
17593;BME280;8915;51.760;14.300;2022-12-31T04:10:18;100196.25;;;7.95;100.00
17593;BME280;8915;51.760;14.300;2022-12-31T04:12:45;100205.78;;;7.95;100.00
17593;BME280;8915;51.760;14.300;2022-12-31T04:15:14;100198.72;;;8.00;100.00
17593;BME280;8915;51.760;14.300;2022-12-31T04:17:41;100191.78;;;8.02;100.00
17593;BME280;8915;51.760;14.300;2022-12-31T04:20:08;100189.25;;;7.99;100.00
17593;BME280;8915;51.760;14.300;2022-12-31T04:22:36;100186.53;;;8.04;100.00
17593;BME280;8915;51.760;14.300;2022-12-31T04:25:04;100177.81;;;8.06;100.00
17593;BME280;8915;51.760;14.300;2022-12-31T04:27:30;100196.84;;;8.07;100.00
17593;BME280;8915;51.760;14.300;2022-12-31T04:29:56;100179.59;;;8.04;100.00
17593;BME280;8915;51.760;14.300;2022-12-31T04:32:23;100183.00;;;8.06;100.00
17593;BME280;8915;51.760;14.300;2022-12-31T04:34:49;100181.28;;;8.05;100.00
17593;BME280;8915;51.760;14.300;2022-12-31T04:37:15;100172.38;;;8.17;100.00
17593;BME280;8915;51.760;14.300;2022-12-31T04:39:43;100168.88;;;8.20;100.00
17593;BME280;8915;51.760;14.300;2022-12-31T04:42:10;100172.25;;;8.23;100.00
17593;BME280;8915;51.760;14.300;2022-12-31T04:44:36;100170.50;;;8.24;100.00
17593;BME280;8915;51.760;14.300;2022-12-31T04:47:03;100172.19;;;8.25;100.00
17593;BME280;8915;51.760;14.300;2022-12-31T04:49:29;100166.78;;;8.34;100.00
17593;BME280;8915;51.760;14.300;2022-12-31T04:51:55;100160.63;;;8.38;100.00
17593;BME280;8915;51.760;14.300;2022-12-31T04:54:22;100163.19;;;8.40;100.00
17593;BME280;8915;51.760;14.300;2022-12-31T04:56:49;100170.78;;;8.49;100.00
17593;BME280;8915;51.760;14.300;2022-12-31T04:59:16;100173.31;;;8.52;100.00
17593;BME280;8915;51.760;14.300;2022-12-31T05:01:42;100178.28;;;8.61;100.00
17593;BME280;8915;51.760;14.300;2022-12-31T05:04:08;100172.16;;;8.64;100.00
17593;BME280;8915;51.760;14.300;2022-12-31T05:06:35;100179.22;;;8.59;100.00
17593;BME280;8915;51.760;14.300;2022-12-31T05:09:01;100170.66;;;8.55;100.00
17593;BME280;8915;51.760;14.300;2022-12-31T05:11:27;100168.06;;;8.53;100.00
17593;BME280;8915;51.760;14.300;2022-12-31T05:13:55;100179.28;;;8.56;100.00
17593;BME280;8915;51.760;14.300;2022-12-31T05:16:21;100166.97;;;8.64;100.00
17593;BME280;8915;51.760;14.300;2022-12-31T05:18:48;100163.44;;;8.65;100.00
17593;BME280;8915;51.760;14.300;2022-12-31T05:21:19;100164.22;;;8.68;100.00
17593;BME280;8915;51.760;14.300;2022-12-31T05:23:45;100165.91;;;8.71;100.00
17593;BME280;8915;51.760;14.300;2022-12-31T05:26:12;100174.41;;;8.78;100.00
17593;BME280;8915;51.760;14.300;2022-12-31T05:28:38;100172.66;;;8.78;100.00
17593;BME280;8915;51.760;14.300;2022-12-31T05:31:06;100171.63;;;8.84;100.00
17593;BME280;8915;51.760;14.300;2022-12-31T05:33:33;100170.56;;;8.91;100.00
17593;BME280;8915;51.760;14.300;2022-12-31T05:35:59;100178.88;;;9.04;100.00
17593;BME280;8915;51.760;14.300;2022-12-31T05:38:25;100171.97;;;9.04;100.00
17593;BME280;8915;51.760;14.300;2022-12-31T05:40:58;100173.56;;;9.08;100.00
17593;BME280;8915;51.760;14.300;2022-12-31T05:43:24;100176.94;;;9.12;100.00
17593;BME280;8915;51.760;14.300;2022-12-31T05:45:51;100174.34;;;9.12;100.00
17593;BME280;8915;51.760;14.300;2022-12-31T05:48:18;100176.03;;;9.15;100.00
17593;BME280;8915;51.760;14.300;2022-12-31T05:50:45;100166.50;;;9.14;100.00
17593;BME280;8915;51.760;14.300;2022-12-31T05:53:11;100159.59;;;9.13;100.00
17593;BME280;8915;51.760;14.300;2022-12-31T05:55:37;100158.75;;;9.12;100.00
17593;BME280;8915;51.760;14.300;2022-12-31T05:58:04;100155.16;;;9.16;100.00
17593;BME280;8915;51.760;14.300;2022-12-31T06:00:30;100156.84;;;9.19;100.00
17593;BME280;8915;51.760;14.300;2022-12-31T06:02:56;100151.59;;;9.20;100.00
17593;BME280;8915;51.760;14.300;2022-12-31T06:05:25;100155.03;;;9.21;100.00
17593;BME280;8915;51.760;14.300;2022-12-31T06:07:51;100153.94;;;9.29;100.00
17593;BME280;8915;51.760;14.300;2022-12-31T06:10:17;100157.38;;;9.30;100.00
17593;BME280;8915;51.760;14.300;2022-12-31T06:12:44;100165.09;;;9.33;100.00
17593;BME280;8915;51.760;14.300;2022-12-31T06:15:10;100167.66;;;9.35;100.00
17593;BME280;8915;51.760;14.300;2022-12-31T06:17:36;100171.91;;;9.37;100.00
17593;BME280;8915;51.760;14.300;2022-12-31T06:20:04;100170.19;;;9.38;100.00
17593;BME280;8915;51.760;14.300;2022-12-31T06:22:31;100177.00;;;9.42;100.00
17593;BME280;8915;51.760;14.300;2022-12-31T06:24:58;100168.38;;;9.40;100.00
17593;BME280;8915;51.760;14.300;2022-12-31T06:27:24;100171.78;;;9.42;100.00
17593;BME280;8915;51.760;14.300;2022-12-31T06:29:50;100158.63;;;9.48;100.00
17593;BME280;8915;51.760;14.300;2022-12-31T06:32:17;100162.09;;;9.47;100.00
17593;BME280;8915;51.760;14.300;2022-12-31T06:34:43;100161.34;;;9.43;100.00
17593;BME280;8915;51.760;14.300;2022-12-31T06:37:09;100153.53;;;9.43;100.00
17593;BME280;8915;51.760;14.300;2022-12-31T06:39:37;100165.81;;;9.38;100.00
17593;BME280;8915;51.760;14.300;2022-12-31T06:42:04;100165.94;;;9.34;100.00
17593;BME280;8915;51.760;14.300;2022-12-31T06:44:30;100160.09;;;9.27;100.00
17593;BME280;8915;51.760;14.300;2022-12-31T06:46:57;100157.63;;;9.21;100.00
17593;BME280;8915;51.760;14.300;2022-12-31T06:49:23;100161.03;;;9.23;100.00
17593;BME280;8915;51.760;14.300;2022-12-31T06:51:51;100159.31;;;9.23;100.00
17593;BME280;8915;51.760;14.300;2022-12-31T06:54:17;100150.56;;;9.26;100.00
17593;BME280;8915;51.760;14.300;2022-12-31T06:56:45;100154.69;;;9.33;100.00
17593;BME280;8915;51.760;14.300;2022-12-31T06:59:22;100169.22;;;9.40;100.00
17593;BME280;8915;51.760;14.300;2022-12-31T07:02:02;100169.03;;;9.48;100.00
17593;BME280;8915;51.760;14.300;2022-12-31T07:04:46;100165.88;;;9.37;100.00
17593;BME280;8915;51.760;14.300;2022-12-31T07:07:20;100166.59;;;9.42;100.00
17593;BME280;8915;51.760;14.300;2022-12-31T07:09:55;100161.34;;;9.43;100.00
17593;BME280;8915;51.760;14.300;2022-12-31T07:12:33;100173.53;;;9.41;100.00
17593;BME280;8915;51.760;14.300;2022-12-31T07:15:04;100177.84;;;9.42;100.00
17593;BME280;8915;51.760;14.300;2022-12-31T07:17:40;100190.69;;;9.48;100.00
17593;BME280;8915;51.760;14.300;2022-12-31T07:20:10;100185.25;;;9.56;100.00
17593;BME280;8915;51.760;14.300;2022-12-31T07:22:37;100186.78;;;9.63;100.00
17593;BME280;8915;51.760;14.300;2022-12-31T07:25:06;100180.53;;;9.69;100.00
17593;BME280;8915;51.760;14.300;2022-12-31T07:27:48;100175.88;;;9.80;100.00
17593;BME280;8915;51.760;14.300;2022-12-31T07:30:19;100187.84;;;9.86;100.00
17593;BME280;8915;51.760;14.300;2022-12-31T07:33:04;100179.88;;;9.92;100.00
17593;BME280;8915;51.760;14.300;2022-12-31T07:35:42;100171.84;;;9.98;100.00
17593;BME280;8915;51.760;14.300;2022-12-31T07:38:19;100183.88;;;10.02;100.00
17593;BME280;8915;51.760;14.300;2022-12-31T07:40:55;100173.19;;;10.12;100.00
17593;BME280;8915;51.760;14.300;2022-12-31T07:43:33;100173.72;;;10.21;100.00
17593;BME280;8915;51.760;14.300;2022-12-31T07:46:06;100172.81;;;10.24;100.00
17593;BME280;8915;51.760;14.300;2022-12-31T07:48:37;100165.03;;;10.22;100.00
17593;BME280;8915;51.760;14.300;2022-12-31T07:51:04;100172.53;;;10.33;100.00
17593;BME280;8915;51.760;14.300;2022-12-31T07:53:31;100168.97;;;10.36;100.00
17593;BME280;8915;51.760;14.300;2022-12-31T07:55:59;100175.78;;;10.40;100.00
17593;BME280;8915;51.760;14.300;2022-12-31T07:58:42;100164.16;;;10.50;100.00
17593;BME280;8915;51.760;14.300;2022-12-31T08:01:16;100183.22;;;10.52;100.00
17593;BME280;8915;51.760;14.300;2022-12-31T08:03:52;100184.00;;;10.54;100.00
17593;BME280;8915;51.760;14.300;2022-12-31T08:06:29;100201.41;;;10.54;100.00
17593;BME280;8915;51.760;14.300;2022-12-31T08:09:02;100185.59;;;10.58;100.00
17593;BME280;8915;51.760;14.300;2022-12-31T08:11:37;100181.31;;;10.57;100.00
17593;BME280;8915;51.760;14.300;2022-12-31T08:14:09;100192.56;;;10.58;100.00
17593;BME280;8915;51.760;14.300;2022-12-31T08:16:37;100196.16;;;10.55;100.00
17593;BME280;8915;51.760;14.300;2022-12-31T08:19:04;100194.28;;;10.59;100.00
17593;BME280;8915;51.760;14.300;2022-12-31T08:21:38;100198.50;;;10.63;100.00
17593;BME280;8915;51.760;14.300;2022-12-31T08:24:14;100208.81;;;10.66;100.00
17593;BME280;8915;51.760;14.300;2022-12-31T08:26:53;100206.00;;;10.72;100.00
17593;BME280;8915;51.760;14.300;2022-12-31T08:29:32;100199.09;;;10.71;100.00
17593;BME280;8915;51.760;14.300;2022-12-31T08:32:06;100195.44;;;10.77;100.00
17593;BME280;8915;51.760;14.300;2022-12-31T08:34:41;100215.13;;;10.86;100.00
17593;BME280;8915;51.760;14.300;2022-12-31T08:37:15;100210.50;;;10.94;100.00
17593;BME280;8915;51.760;14.300;2022-12-31T08:40:06;100211.09;;;11.02;100.00
17593;BME280;8915;51.760;14.300;2022-12-31T08:42:40;100206.50;;;11.09;100.00
17593;BME280;8915;51.760;14.300;2022-12-31T08:45:14;100206.97;;;11.20;100.00
17593;BME280;8915;51.760;14.300;2022-12-31T08:47:46;100206.50;;;11.34;100.00
17593;BME280;8915;51.760;14.300;2022-12-31T08:50:17;100197.06;;;11.53;100.00
17593;BME280;8915;51.760;14.300;2022-12-31T08:52:45;100197.34;;;11.69;100.00
17593;BME280;8915;51.760;14.300;2022-12-31T08:55:14;100196.78;;;11.85;100.00
17593;BME280;8915;51.760;14.300;2022-12-31T08:57:48;100196.59;;;11.91;100.00
17593;BME280;8915;51.760;14.300;2022-12-31T09:00:19;100188.44;;;11.99;100.00
17593;BME280;8915;51.760;14.300;2022-12-31T09:02:54;100180.91;;;12.13;100.00
17593;BME280;8915;51.760;14.300;2022-12-31T09:05:29;100194.28;;;12.27;100.00
17593;BME280;8915;51.760;14.300;2022-12-31T09:08:08;100205.78;;;12.45;100.00
17593;BME280;8915;51.760;14.300;2022-12-31T09:10:45;100205.56;;;12.72;100.00
17593;BME280;8915;51.760;14.300;2022-12-31T09:13:21;100207.53;;;12.87;100.00
17593;BME280;8915;51.760;14.300;2022-12-31T09:15:58;100204.47;;;12.98;100.00
17593;BME280;8915;51.760;14.300;2022-12-31T09:18:28;100203.47;;;13.01;100.00
17593;BME280;8915;51.760;14.300;2022-12-31T09:20:56;100212.03;;;13.04;100.00
17593;BME280;8915;51.760;14.300;2022-12-31T09:23:22;100212.03;;;13.04;100.00
17593;BME280;8915;51.760;14.300;2022-12-31T09:25:55;100211.63;;;13.14;100.00
17593;BME280;8915;51.760;14.300;2022-12-31T09:28:35;100215.63;;;13.22;100.00
17593;BME280;8915;51.760;14.300;2022-12-31T09:31:11;100215.31;;;13.30;100.00
17593;BME280;8915;51.760;14.300;2022-12-31T09:33:41;100218.38;;;13.40;100.00
17593;BME280;8915;51.760;14.300;2022-12-31T09:36:16;100226.75;;;13.48;100.00
17593;BME280;8915;51.760;14.300;2022-12-31T09:38:50;100229.59;;;13.62;100.00
17593;BME280;8915;51.760;14.300;2022-12-31T09:41:36;100230.75;;;13.76;100.00
17593;BME280;8915;51.760;14.300;2022-12-31T09:47:52;100221.97;;;13.96;100.00
17593;BME280;8915;51.760;14.300;2022-12-31T09:50:41;100232.94;;;14.04;100.00
17593;BME280;8915;51.760;14.300;2022-12-31T09:53:25;100233.91;;;14.20;100.00
17593;BME280;8915;51.760;14.300;2022-12-31T09:55:56;100232.00;;;14.24;100.00
17593;BME280;8915;51.760;14.300;2022-12-31T09:58:40;100222.53;;;14.22;100.00
17593;BME280;8915;51.760;14.300;2022-12-31T10:01:16;100230.00;;;14.29;100.00
17593;BME280;8915;51.760;14.300;2022-12-31T10:04:02;100245.31;;;14.38;100.00
17593;BME280;8915;51.760;14.300;2022-12-31T10:06:35;100226.66;;;14.45;100.00
17593;BME280;8915;51.760;14.300;2022-12-31T10:09:16;100223.19;;;14.44;100.00
17593;BME280;8915;51.760;14.300;2022-12-31T10:12:05;100233.91;;;14.58;100.00
17593;BME280;8915;51.760;14.300;2022-12-31T10:14:47;100230.66;;;14.71;100.00
17593;BME280;8915;51.760;14.300;2022-12-31T10:17:28;100219.06;;;14.75;100.00
17593;BME280;8915;51.760;14.300;2022-12-31T10:20:17;100227.50;;;14.82;100.00
17593;BME280;8915;51.760;14.300;2022-12-31T10:23:21;100233.75;;;14.79;100.00
17593;BME280;8915;51.760;14.300;2022-12-31T10:26:11;100228.50;;;14.79;100.00
17593;BME280;8915;51.760;14.300;2022-12-31T10:28:45;100238.91;;;14.81;100.00
17593;BME280;8915;51.760;14.300;2022-12-31T10:31:31;100229.50;;;14.76;100.00
17593;BME280;8915;51.760;14.300;2022-12-31T10:34:12;100232.06;;;14.78;100.00
17593;BME280;8915;51.760;14.300;2022-12-31T10:36:50;100234.97;;;14.89;100.00
17593;BME280;8915;51.760;14.300;2022-12-31T10:39:24;100231.28;;;14.93;100.00
17593;BME280;8915;51.760;14.300;2022-12-31T10:42:26;100233.66;;;14.98;100.00
17593;BME280;8915;51.760;14.300;2022-12-31T10:45:14;100229.19;;;15.00;100.00
17593;BME280;8915;51.760;14.300;2022-12-31T10:51:24;100215.69;;;14.90;100.00
17593;BME280;8915;51.760;14.300;2022-12-31T10:54:17;100206.34;;;14.85;100.00
17593;BME280;8915;51.760;14.300;2022-12-31T10:57:14;100227.78;;;14.93;100.00
17593;BME280;8915;51.760;14.300;2022-12-31T11:00:00;100236.53;;;14.93;100.00
17593;BME280;8915;51.760;14.300;2022-12-31T11:02:57;100229.28;;;14.99;100.00
17593;BME280;8915;51.760;14.300;2022-12-31T11:05:47;100231.59;;;15.05;100.00
17593;BME280;8915;51.760;14.300;2022-12-31T11:08:34;100240.00;;;15.11;100.00
17593;BME280;8915;51.760;14.300;2022-12-31T11:11:17;100246.31;;;15.25;100.00
17593;BME280;8915;51.760;14.300;2022-12-31T11:14:03;100242.63;;;15.29;100.00
17593;BME280;8915;51.760;14.300;2022-12-31T11:16:47;100239.13;;;15.28;100.00
17593;BME280;8915;51.760;14.300;2022-12-31T11:19:22;100236.66;;;15.25;100.00
17593;BME280;8915;51.760;14.300;2022-12-31T11:22:08;100261.00;;;15.29;100.00
17593;BME280;8915;51.760;14.300;2022-12-31T11:24:53;100262.38;;;15.36;100.00
17593;BME280;8915;51.760;14.300;2022-12-31T11:27:42;100260.28;;;15.43;100.00
17593;BME280;8915;51.760;14.300;2022-12-31T11:30:20;100264.59;;;15.44;100.00
17593;BME280;8915;51.760;14.300;2022-12-31T11:32:56;100258.50;;;15.43;100.00
17593;BME280;8915;51.760;14.300;2022-12-31T11:35:35;100263.75;;;15.43;100.00
17593;BME280;8915;51.760;14.300;2022-12-31T11:38:14;100258.66;;;15.40;100.00
17593;BME280;8915;51.760;14.300;2022-12-31T11:40:54;100263.75;;;15.43;100.00
17593;BME280;8915;51.760;14.300;2022-12-31T11:43:29;100269.16;;;15.40;100.00
17593;BME280;8915;51.760;14.300;2022-12-31T11:46:23;100257.97;;;15.37;100.00
17593;BME280;8915;51.760;14.300;2022-12-31T11:49:02;100263.84;;;15.42;100.00
17593;BME280;8915;51.760;14.300;2022-12-31T11:51:51;100261.28;;;15.40;100.00
17593;BME280;8915;51.760;14.300;2022-12-31T11:54:55;100250.00;;;15.38;100.00
17593;BME280;8915;51.760;14.300;2022-12-31T11:57:26;100253.47;;;15.39;100.00
17593;BME280;8915;51.760;14.300;2022-12-31T12:00:01;100255.25;;;15.38;100.00
17593;BME280;8915;51.760;14.300;2022-12-31T12:02:41;100255.47;;;15.51;100.00
17593;BME280;8915;51.760;14.300;2022-12-31T12:05:11;100243.53;;;15.61;100.00
17593;BME280;8915;51.760;14.300;2022-12-31T12:07:38;100246.78;;;15.66;100.00
17593;BME280;8915;51.760;14.300;2022-12-31T12:10:22;100254.06;;;15.61;100.00
17593;BME280;8915;51.760;14.300;2022-12-31T12:12:50;100257.25;;;15.50;100.00
17593;BME280;8915;51.760;14.300;2022-12-31T12:15:21;100253.94;;;15.47;100.00
17593;BME280;8915;51.760;14.300;2022-12-31T12:17:51;100260.38;;;15.41;100.00
17593;BME280;8915;51.760;14.300;2022-12-31T12:20:26;100252.16;;;15.30;100.00
17593;BME280;8915;51.760;14.300;2022-12-31T12:22:55;100255.44;;;15.18;100.00
17593;BME280;8915;51.760;14.300;2022-12-31T12:25:23;100256.22;;;15.20;100.00
17593;BME280;8915;51.760;14.300;2022-12-31T12:27:50;100263.16;;;15.21;100.00
17593;BME280;8915;51.760;14.300;2022-12-31T12:30:20;100251.06;;;15.18;100.00
17593;BME280;8915;51.760;14.300;2022-12-31T12:32:51;100259.63;;;15.22;100.00
17593;BME280;8915;51.760;14.300;2022-12-31T12:35:22;100250.19;;;15.18;100.00
17593;BME280;8915;51.760;14.300;2022-12-31T12:37:58;100251.66;;;15.23;100.00
17593;BME280;8915;51.760;14.300;2022-12-31T12:40:24;100262.84;;;15.27;100.00
17593;BME280;8915;51.760;14.300;2022-12-31T12:42:52;100264.63;;;15.26;100.00
17593;BME280;8915;51.760;14.300;2022-12-31T12:45:22;100263.22;;;15.19;100.00
17593;BME280;8915;51.760;14.300;2022-12-31T12:47:53;100265.50;;;15.27;100.00
17593;BME280;8915;51.760;14.300;2022-12-31T12:50:22;100255.91;;;15.26;100.00
17593;BME280;8915;51.760;14.300;2022-12-31T12:55:53;100249.19;;;15.20;100.00
17593;BME280;8915;51.760;14.300;2022-12-31T12:58:34;100254.38;;;15.22;100.00
17593;BME280;8915;51.760;14.300;2022-12-31T13:01:11;100250.34;;;15.14;100.00
17593;BME280;8915;51.760;14.300;2022-12-31T13:04:04;100263.63;;;15.29;100.00
17593;BME280;8915;51.760;14.300;2022-12-31T13:06:43;100275.13;;;15.26;100.00
17593;BME280;8915;51.760;14.300;2022-12-31T13:09:21;100272.56;;;15.25;100.00
17593;BME280;8915;51.760;14.300;2022-12-31T13:11:59;100276.13;;;15.24;100.00
17593;BME280;8915;51.760;14.300;2022-12-31T13:14:33;100277.47;;;15.15;100.00
17593;BME280;8915;51.760;14.300;2022-12-31T13:17:17;100276.44;;;15.18;100.00
17593;BME280;8915;51.760;14.300;2022-12-31T13:19:55;100288.25;;;15.26;100.00
17593;BME280;8915;51.760;14.300;2022-12-31T13:22:30;100276.13;;;15.24;100.00